sensor_id;sensor_type;location;lat;lon;timestamp;temperature;humidity
30371;DHT22;17164;48.590;11.410;2022-07-23T00:00:48;21.60;99.90
30371;DHT22;17164;48.590;11.410;2022-07-23T00:03:14;21.70;99.90
30371;DHT22;17164;48.590;11.410;2022-07-23T00:05:39;21.70;99.90
30371;DHT22;17164;48.590;11.410;2022-07-23T00:08:06;21.80;99.90
30371;DHT22;17164;48.590;11.410;2022-07-23T00:10:32;21.80;99.90
30371;DHT22;17164;48.590;11.410;2022-07-23T00:12:58;21.80;99.90
30371;DHT22;17164;48.590;11.410;2022-07-23T00:15:23;21.80;99.90
30371;DHT22;17164;48.590;11.410;2022-07-23T00:17:49;21.90;99.90
30371;DHT22;17164;48.590;11.410;2022-07-23T00:20:15;21.80;99.90
30371;DHT22;17164;48.590;11.410;2022-07-23T00:22:52;21.80;99.90
30371;DHT22;17164;48.590;11.410;2022-07-23T00:25:19;21.90;99.90
30371;DHT22;17164;48.590;11.410;2022-07-23T00:27:45;21.80;99.90
30371;DHT22;17164;48.590;11.410;2022-07-23T00:30:11;21.80;99.90
30371;DHT22;17164;48.590;11.410;2022-07-23T00:35:11;21.80;99.90
30371;DHT22;17164;48.590;11.410;2022-07-23T00:37:37;21.80;99.90
30371;DHT22;17164;48.590;11.410;2022-07-23T00:40:03;21.80;99.90
30371;DHT22;17164;48.590;11.410;2022-07-23T00:42:31;21.90;99.90
30371;DHT22;17164;48.590;11.410;2022-07-23T00:44:57;21.90;99.90
30371;DHT22;17164;48.590;11.410;2022-07-23T00:47:22;22.00;99.90
30371;DHT22;17164;48.590;11.410;2022-07-23T00:49:48;22.00;99.90
30371;DHT22;17164;48.590;11.410;2022-07-23T00:52:13;22.00;99.90
30371;DHT22;17164;48.590;11.410;2022-07-23T00:54:39;22.00;99.90
30371;DHT22;17164;48.590;11.410;2022-07-23T00:57:05;22.00;99.90
30371;DHT22;17164;48.590;11.410;2022-07-23T00:59:31;22.10;99.90
30371;DHT22;17164;48.590;11.410;2022-07-23T01:01:57;22.10;99.90
30371;DHT22;17164;48.590;11.410;2022-07-23T01:04:23;22.10;99.90
30371;DHT22;17164;48.590;11.410;2022-07-23T01:06:48;22.10;99.90
30371;DHT22;17164;48.590;11.410;2022-07-23T01:09:14;22.10;99.90
30371;DHT22;17164;48.590;11.410;2022-07-23T01:11:40;22.10;99.90
30371;DHT22;17164;48.590;11.410;2022-07-23T01:14:15;22.10;99.90
30371;DHT22;17164;48.590;11.410;2022-07-23T01:16:42;22.20;99.90
30371;DHT22;17164;48.590;11.410;2022-07-23T01:19:09;22.30;99.90
30371;DHT22;17164;48.590;11.410;2022-07-23T01:21:40;22.20;99.90
30371;DHT22;17164;48.590;11.410;2022-07-23T01:24:07;22.20;99.90
30371;DHT22;17164;48.590;11.410;2022-07-23T01:26:34;22.20;99.90
30371;DHT22;17164;48.590;11.410;2022-07-23T01:29:00;22.20;99.90
30371;DHT22;17164;48.590;11.410;2022-07-23T01:31:26;22.20;99.90
30371;DHT22;17164;48.590;11.410;2022-07-23T01:33:51;22.20;99.90
30371;DHT22;17164;48.590;11.410;2022-07-23T01:36:17;22.20;99.90
30371;DHT22;17164;48.590;11.410;2022-07-23T01:38:43;22.20;99.90
30371;DHT22;17164;48.590;11.410;2022-07-23T01:41:08;22.20;99.90
30371;DHT22;17164;48.590;11.410;2022-07-23T01:43:34;22.20;99.90
30371;DHT22;17164;48.590;11.410;2022-07-23T01:45:59;22.10;99.90
30371;DHT22;17164;48.590;11.410;2022-07-23T01:48:25;22.10;99.90
30371;DHT22;17164;48.590;11.410;2022-07-23T01:50:51;22.00;99.90
30371;DHT22;17164;48.590;11.410;2022-07-23T01:53:16;22.00;99.90
30371;DHT22;17164;48.590;11.410;2022-07-23T01:55:42;21.90;99.90
30371;DHT22;17164;48.590;11.410;2022-07-23T01:58:08;21.90;99.90
30371;DHT22;17164;48.590;11.410;2022-07-23T02:00:34;21.90;99.90
30371;DHT22;17164;48.590;11.410;2022-07-23T02:03:00;21.90;99.90
30371;DHT22;17164;48.590;11.410;2022-07-23T02:05:26;21.90;99.90
30371;DHT22;17164;48.590;11.410;2022-07-23T02:07:54;21.90;99.90
30371;DHT22;17164;48.590;11.410;2022-07-23T02:10:20;21.80;99.90
30371;DHT22;17164;48.590;11.410;2022-07-23T02:12:45;21.80;99.90
30371;DHT22;17164;48.590;11.410;2022-07-23T02:15:11;21.70;99.90
30371;DHT22;17164;48.590;11.410;2022-07-23T02:17:37;21.60;99.90
30371;DHT22;17164;48.590;11.410;2022-07-23T02:20:03;21.40;99.90
30371;DHT22;17164;48.590;11.410;2022-07-23T02:22:29;21.40;99.90
30371;DHT22;17164;48.590;11.410;2022-07-23T02:24:55;21.20;99.90
30371;DHT22;17164;48.590;11.410;2022-07-23T02:27:20;21.00;99.90
30371;DHT22;17164;48.590;11.410;2022-07-23T02:29:47;20.80;99.90
30371;DHT22;17164;48.590;11.410;2022-07-23T02:32:12;20.70;99.90
30371;DHT22;17164;48.590;11.410;2022-07-23T02:34:38;20.50;99.90
30371;DHT22;17164;48.590;11.410;2022-07-23T02:37:03;20.40;99.90
30371;DHT22;17164;48.590;11.410;2022-07-23T02:39:29;20.30;99.90
30371;DHT22;17164;48.590;11.410;2022-07-23T02:41:55;20.20;99.90
30371;DHT22;17164;48.590;11.410;2022-07-23T02:44:21;20.10;99.90
30371;DHT22;17164;48.590;11.410;2022-07-23T02:46:46;20.10;99.90
30371;DHT22;17164;48.590;11.410;2022-07-23T02:49:12;20.00;99.90
30371;DHT22;17164;48.590;11.410;2022-07-23T02:51:37;20.00;99.90
30371;DHT22;17164;48.590;11.410;2022-07-23T02:54:03;19.90;99.90
30371;DHT22;17164;48.590;11.410;2022-07-23T02:56:29;19.90;99.90
30371;DHT22;17164;48.590;11.410;2022-07-23T02:58:54;19.80;99.90
30371;DHT22;17164;48.590;11.410;2022-07-23T03:01:20;19.80;99.90
30371;DHT22;17164;48.590;11.410;2022-07-23T03:03:46;19.80;99.90
30371;DHT22;17164;48.590;11.410;2022-07-23T03:06:11;19.80;99.90
30371;DHT22;17164;48.590;11.410;2022-07-23T03:08:37;19.70;99.90
30371;DHT22;17164;48.590;11.410;2022-07-23T03:11:03;19.70;99.90
30371;DHT22;17164;48.590;11.410;2022-07-23T03:13:28;19.70;99.90
30371;DHT22;17164;48.590;11.410;2022-07-23T03:15:54;19.60;99.90
30371;DHT22;17164;48.590;11.410;2022-07-23T03:18:20;19.60;99.90
30371;DHT22;17164;48.590;11.410;2022-07-23T03:20:46;19.60;99.90
30371;DHT22;17164;48.590;11.410;2022-07-23T03:23:11;19.60;99.90
30371;DHT22;17164;48.590;11.410;2022-07-23T03:25:37;19.50;99.90
30371;DHT22;17164;48.590;11.410;2022-07-23T03:28:03;19.60;99.90
30371;DHT22;17164;48.590;11.410;2022-07-23T03:30:28;19.60;99.90
30371;DHT22;17164;48.590;11.410;2022-07-23T03:32:54;19.50;99.90
30371;DHT22;17164;48.590;11.410;2022-07-23T03:35:20;19.50;99.90
30371;DHT22;17164;48.590;11.410;2022-07-23T03:37:45;19.50;99.90
30371;DHT22;17164;48.590;11.410;2022-07-23T03:40:11;19.50;99.90
30371;DHT22;17164;48.590;11.410;2022-07-23T03:42:37;19.50;99.90
30371;DHT22;17164;48.590;11.410;2022-07-23T03:45:05;19.50;99.90
30371;DHT22;17164;48.590;11.410;2022-07-23T03:47:31;19.50;99.90
30371;DHT22;17164;48.590;11.410;2022-07-23T03:49:56;19.40;99.90
30371;DHT22;17164;48.590;11.410;2022-07-23T03:52:22;19.40;99.90
30371;DHT22;17164;48.590;11.410;2022-07-23T03:54:47;19.40;99.90
30371;DHT22;17164;48.590;11.410;2022-07-23T03:57:13;19.40;99.90
30371;DHT22;17164;48.590;11.410;2022-07-23T03:59:39;19.40;99.90
30371;DHT22;17164;48.590;11.410;2022-07-23T04:02:04;19.40;99.90
30371;DHT22;17164;48.590;11.410;2022-07-23T04:04:30;19.50;99.90
30371;DHT22;17164;48.590;11.410;2022-07-23T04:06:55;19.50;99.90
30371;DHT22;17164;48.590;11.410;2022-07-23T04:09:21;19.50;99.90
30371;DHT22;17164;48.590;11.410;2022-07-23T04:11:46;19.50;99.90
30371;DHT22;17164;48.590;11.410;2022-07-23T04:14:12;19.50;99.90
30371;DHT22;17164;48.590;11.410;2022-07-23T04:16:38;19.40;99.90
30371;DHT22;17164;48.590;11.410;2022-07-23T04:19:03;19.40;99.90
30371;DHT22;17164;48.590;11.410;2022-07-23T04:21:29;19.40;99.90
30371;DHT22;17164;48.590;11.410;2022-07-23T04:23:55;19.40;99.90
30371;DHT22;17164;48.590;11.410;2022-07-23T04:26:21;19.50;99.90
30371;DHT22;17164;48.590;11.410;2022-07-23T04:28:47;19.50;99.90
30371;DHT22;17164;48.590;11.410;2022-07-23T04:31:12;19.60;99.90
30371;DHT22;17164;48.590;11.410;2022-07-23T04:33:38;19.60;99.90
30371;DHT22;17164;48.590;11.410;2022-07-23T04:36:04;19.60;99.90
30371;DHT22;17164;48.590;11.410;2022-07-23T04:38:30;19.60;99.90
30371;DHT22;17164;48.590;11.410;2022-07-23T04:40:55;19.60;99.90
30371;DHT22;17164;48.590;11.410;2022-07-23T04:43:21;19.70;99.90
30371;DHT22;17164;48.590;11.410;2022-07-23T04:45:47;19.70;99.90
30371;DHT22;17164;48.590;11.410;2022-07-23T04:48:12;19.70;99.90
30371;DHT22;17164;48.590;11.410;2022-07-23T04:50:38;19.80;99.90
30371;DHT22;17164;48.590;11.410;2022-07-23T04:53:04;19.80;99.90
30371;DHT22;17164;48.590;11.410;2022-07-23T04:55:30;19.80;99.90
30371;DHT22;17164;48.590;11.410;2022-07-23T04:57:55;19.80;99.90
30371;DHT22;17164;48.590;11.410;2022-07-23T05:00:21;19.90;99.90
30371;DHT22;17164;48.590;11.410;2022-07-23T05:02:47;19.90;99.90
30371;DHT22;17164;48.590;11.410;2022-07-23T05:05:12;19.90;99.90
30371;DHT22;17164;48.590;11.410;2022-07-23T05:07:38;19.90;99.90
30371;DHT22;17164;48.590;11.410;2022-07-23T05:10:04;19.90;99.90
30371;DHT22;17164;48.590;11.410;2022-07-23T05:12:29;19.90;99.90
30371;DHT22;17164;48.590;11.410;2022-07-23T05:14:55;20.00;99.90
30371;DHT22;17164;48.590;11.410;2022-07-23T05:17:21;20.00;99.90
30371;DHT22;17164;48.590;11.410;2022-07-23T05:19:46;20.00;99.90
30371;DHT22;17164;48.590;11.410;2022-07-23T05:22:12;19.90;99.90
30371;DHT22;17164;48.590;11.410;2022-07-23T05:24:37;20.00;99.90
30371;DHT22;17164;48.590;11.410;2022-07-23T05:27:03;20.00;99.90
30371;DHT22;17164;48.590;11.410;2022-07-23T05:29:29;20.00;99.90
30371;DHT22;17164;48.590;11.410;2022-07-23T05:31:54;20.00;99.90
30371;DHT22;17164;48.590;11.410;2022-07-23T05:34:20;20.00;99.90
30371;DHT22;17164;48.590;11.410;2022-07-23T05:36:45;20.00;99.90
30371;DHT22;17164;48.590;11.410;2022-07-23T05:39:11;20.00;99.90
30371;DHT22;17164;48.590;11.410;2022-07-23T05:41:36;20.10;99.90
30371;DHT22;17164;48.590;11.410;2022-07-23T05:44:02;20.20;99.90
30371;DHT22;17164;48.590;11.410;2022-07-23T05:46:28;20.30;99.90
30371;DHT22;17164;48.590;11.410;2022-07-23T05:48:53;20.30;99.90
30371;DHT22;17164;48.590;11.410;2022-07-23T05:51:20;20.30;99.90
30371;DHT22;17164;48.590;11.410;2022-07-23T05:53:46;20.30;99.90
30371;DHT22;17164;48.590;11.410;2022-07-23T05:56:12;20.40;99.90
30371;DHT22;17164;48.590;11.410;2022-07-23T05:58:37;20.40;99.90
30371;DHT22;17164;48.590;11.410;2022-07-23T06:01:03;20.50;99.90
30371;DHT22;17164;48.590;11.410;2022-07-23T06:03:28;20.50;99.90
30371;DHT22;17164;48.590;11.410;2022-07-23T06:05:54;20.50;99.90
30371;DHT22;17164;48.590;11.410;2022-07-23T06:08:19;20.60;99.90
30371;DHT22;17164;48.590;11.410;2022-07-23T06:10:45;20.60;99.90
30371;DHT22;17164;48.590;11.410;2022-07-23T06:13:11;20.60;99.90
30371;DHT22;17164;48.590;11.410;2022-07-23T06:15:36;20.50;99.90
30371;DHT22;17164;48.590;11.410;2022-07-23T06:18:02;20.50;99.90
30371;DHT22;17164;48.590;11.410;2022-07-23T06:20:27;20.40;99.90
30371;DHT22;17164;48.590;11.410;2022-07-23T06:22:53;20.40;99.90
30371;DHT22;17164;48.590;11.410;2022-07-23T06:25:19;20.40;99.90
30371;DHT22;17164;48.590;11.410;2022-07-23T06:27:46;20.40;99.90
30371;DHT22;17164;48.590;11.410;2022-07-23T06:30:13;20.40;99.90
30371;DHT22;17164;48.590;11.410;2022-07-23T06:32:38;20.40;99.90
30371;DHT22;17164;48.590;11.410;2022-07-23T06:35:04;20.50;99.90
30371;DHT22;17164;48.590;11.410;2022-07-23T06:37:30;20.50;99.90
30371;DHT22;17164;48.590;11.410;2022-07-23T06:39:56;20.60;99.90
30371;DHT22;17164;48.590;11.410;2022-07-23T06:42:21;20.60;99.90
30371;DHT22;17164;48.590;11.410;2022-07-23T06:44:47;20.60;99.90
30371;DHT22;17164;48.590;11.410;2022-07-23T06:47:12;20.60;99.90
30371;DHT22;17164;48.590;11.410;2022-07-23T06:49:38;20.70;99.90
30371;DHT22;17164;48.590;11.410;2022-07-23T06:52:06;20.70;99.90
30371;DHT22;17164;48.590;11.410;2022-07-23T06:54:32;20.80;99.90
30371;DHT22;17164;48.590;11.410;2022-07-23T06:56:57;20.90;99.90
30371;DHT22;17164;48.590;11.410;2022-07-23T06:59:23;20.90;99.90
30371;DHT22;17164;48.590;11.410;2022-07-23T07:01:49;21.00;99.90
30371;DHT22;17164;48.590;11.410;2022-07-23T07:04:14;21.10;99.90
30371;DHT22;17164;48.590;11.410;2022-07-23T07:06:40;21.20;99.90
30371;DHT22;17164;48.590;11.410;2022-07-23T07:09:06;21.20;99.90
30371;DHT22;17164;48.590;11.410;2022-07-23T07:11:32;21.30;99.90
30371;DHT22;17164;48.590;11.410;2022-07-23T07:13:57;21.40;99.90
30371;DHT22;17164;48.590;11.410;2022-07-23T07:16:23;21.40;99.90
30371;DHT22;17164;48.590;11.410;2022-07-23T07:18:48;21.40;99.90
30371;DHT22;17164;48.590;11.410;2022-07-23T07:21:14;21.40;99.90
30371;DHT22;17164;48.590;11.410;2022-07-23T07:23:40;21.40;99.90
30371;DHT22;17164;48.590;11.410;2022-07-23T07:26:05;21.40;99.90
30371;DHT22;17164;48.590;11.410;2022-07-23T07:28:31;21.50;99.90
30371;DHT22;17164;48.590;11.410;2022-07-23T07:30:57;21.50;99.90
30371;DHT22;17164;48.590;11.410;2022-07-23T07:33:22;21.50;99.90
30371;DHT22;17164;48.590;11.410;2022-07-23T07:35:48;21.50;99.90
30371;DHT22;17164;48.590;11.410;2022-07-23T07:38:14;21.50;99.90
30371;DHT22;17164;48.590;11.410;2022-07-23T07:40:39;21.60;99.90
30371;DHT22;17164;48.590;11.410;2022-07-23T07:43:05;21.60;99.90
30371;DHT22;17164;48.590;11.410;2022-07-23T07:45:31;21.60;99.90
30371;DHT22;17164;48.590;11.410;2022-07-23T07:47:57;21.50;99.90
30371;DHT22;17164;48.590;11.410;2022-07-23T07:50:23;21.60;99.90
30371;DHT22;17164;48.590;11.410;2022-07-23T07:52:49;21.60;99.90
30371;DHT22;17164;48.590;11.410;2022-07-23T07:55:14;21.60;99.90
30371;DHT22;17164;48.590;11.410;2022-07-23T07:57:41;21.60;99.90
30371;DHT22;17164;48.590;11.410;2022-07-23T08:00:08;21.70;99.90
30371;DHT22;17164;48.590;11.410;2022-07-23T08:02:51;21.70;99.90
30371;DHT22;17164;48.590;11.410;2022-07-23T08:05:25;21.80;99.90
30371;DHT22;17164;48.590;11.410;2022-07-23T08:07:51;21.80;99.90
30371;DHT22;17164;48.590;11.410;2022-07-23T08:10:18;21.80;99.90
30371;DHT22;17164;48.590;11.410;2022-07-23T08:12:46;21.90;99.90
30371;DHT22;17164;48.590;11.410;2022-07-23T08:15:13;22.00;99.90
30371;DHT22;17164;48.590;11.410;2022-07-23T08:17:39;22.00;99.90
30371;DHT22;17164;48.590;11.410;2022-07-23T08:20:06;22.10;99.90
30371;DHT22;17164;48.590;11.410;2022-07-23T08:22:55;22.20;99.90
30371;DHT22;17164;48.590;11.410;2022-07-23T08:25:27;22.30;99.90
30371;DHT22;17164;48.590;11.410;2022-07-23T08:27:53;22.40;99.90
30371;DHT22;17164;48.590;11.410;2022-07-23T08:30:19;22.50;99.90
30371;DHT22;17164;48.590;11.410;2022-07-23T08:32:58;22.50;99.90
30371;DHT22;17164;48.590;11.410;2022-07-23T08:35:48;22.50;99.90
30371;DHT22;17164;48.590;11.410;2022-07-23T08:38:15;22.60;99.90
30371;DHT22;17164;48.590;11.410;2022-07-23T08:40:44;22.60;99.90
30371;DHT22;17164;48.590;11.410;2022-07-23T08:43:12;22.70;99.90
30371;DHT22;17164;48.590;11.410;2022-07-23T08:45:39;22.70;99.90
30371;DHT22;17164;48.590;11.410;2022-07-23T08:48:09;22.70;99.90
30371;DHT22;17164;48.590;11.410;2022-07-23T08:50:36;22.80;99.90
30371;DHT22;17164;48.590;11.410;2022-07-23T08:53:05;22.80;99.90
30371;DHT22;17164;48.590;11.410;2022-07-23T08:55:31;22.80;99.90
30371;DHT22;17164;48.590;11.410;2022-07-23T08:57:57;22.80;99.90
30371;DHT22;17164;48.590;11.410;2022-07-23T09:00:22;22.80;99.90
30371;DHT22;17164;48.590;11.410;2022-07-23T09:02:49;23.00;99.90
30371;DHT22;17164;48.590;11.410;2022-07-23T09:05:15;23.10;99.90
30371;DHT22;17164;48.590;11.410;2022-07-23T09:08:10;23.30;99.90
30371;DHT22;17164;48.590;11.410;2022-07-23T09:13:30;23.70;99.90
30371;DHT22;17164;48.590;11.410;2022-07-23T09:16:13;23.80;99.90
30371;DHT22;17164;48.590;11.410;2022-07-23T09:18:50;24.00;99.90
30371;DHT22;17164;48.590;11.410;2022-07-23T09:21:34;24.20;99.90
30371;DHT22;17164;48.590;11.410;2022-07-23T09:24:08;24.30;99.90
30371;DHT22;17164;48.590;11.410;2022-07-23T09:31:43;24.70;99.90
30371;DHT22;17164;48.590;11.410;2022-07-23T09:34:21;24.90;99.90
30371;DHT22;17164;48.590;11.410;2022-07-23T09:36:48;25.00;99.90
30371;DHT22;17164;48.590;11.410;2022-07-23T09:39:16;25.00;99.90
30371;DHT22;17164;48.590;11.410;2022-07-23T09:41:45;25.10;99.90
30371;DHT22;17164;48.590;11.410;2022-07-23T09:44:17;25.30;99.90
30371;DHT22;17164;48.590;11.410;2022-07-23T09:46:45;25.40;99.90
30371;DHT22;17164;48.590;11.410;2022-07-23T09:49:29;25.50;99.90
30371;DHT22;17164;48.590;11.410;2022-07-23T09:51:58;25.60;99.90
30371;DHT22;17164;48.590;11.410;2022-07-23T09:54:28;25.80;99.90
30371;DHT22;17164;48.590;11.410;2022-07-23T09:56:57;25.80;99.90
30371;DHT22;17164;48.590;11.410;2022-07-23T09:59:29;25.90;99.90
30371;DHT22;17164;48.590;11.410;2022-07-23T10:01:56;26.10;99.90
30371;DHT22;17164;48.590;11.410;2022-07-23T10:04:24;26.20;99.90
30371;DHT22;17164;48.590;11.410;2022-07-23T10:06:55;26.40;99.90
30371;DHT22;17164;48.590;11.410;2022-07-23T10:09:24;26.60;99.30
30371;DHT22;17164;48.590;11.410;2022-07-23T10:11:51;26.60;98.70
30371;DHT22;17164;48.590;11.410;2022-07-23T10:14:18;26.70;98.90
30371;DHT22;17164;48.590;11.410;2022-07-23T10:16:44;26.70;98.30
30371;DHT22;17164;48.590;11.410;2022-07-23T10:19:10;26.80;98.40
30371;DHT22;17164;48.590;11.410;2022-07-23T10:21:45;26.80;98.50
30371;DHT22;17164;48.590;11.410;2022-07-23T10:35:24;27.20;95.30
30371;DHT22;17164;48.590;11.410;2022-07-23T10:37:57;27.30;95.90
30371;DHT22;17164;48.590;11.410;2022-07-23T10:40:27;27.40;94.70
30371;DHT22;17164;48.590;11.410;2022-07-23T10:42:59;27.50;94.60
30371;DHT22;17164;48.590;11.410;2022-07-23T10:45:31;27.60;94.60
30371;DHT22;17164;48.590;11.410;2022-07-23T10:50:38;27.60;94.40
30371;DHT22;17164;48.590;11.410;2022-07-23T10:58:02;27.60;93.80
30371;DHT22;17164;48.590;11.410;2022-07-23T11:00:29;27.60;93.40
30371;DHT22;17164;48.590;11.410;2022-07-23T11:03:00;27.60;92.90
30371;DHT22;17164;48.590;11.410;2022-07-23T11:10:34;28.10;92.30
30371;DHT22;17164;48.590;11.410;2022-07-23T11:16:21;28.30;91.50
30371;DHT22;17164;48.590;11.410;2022-07-23T11:24:04;28.40;90.40
30371;DHT22;17164;48.590;11.410;2022-07-23T11:31:55;28.20;90.90
30371;DHT22;17164;48.590;11.410;2022-07-23T11:37:07;28.30;89.00
30371;DHT22;17164;48.590;11.410;2022-07-23T11:39:33;28.30;90.50
30371;DHT22;17164;48.590;11.410;2022-07-23T11:42:00;28.30;91.30
30371;DHT22;17164;48.590;11.410;2022-07-23T11:44:33;28.30;90.00
30371;DHT22;17164;48.590;11.410;2022-07-23T11:47:02;28.30;88.40
30371;DHT22;17164;48.590;11.410;2022-07-23T11:49:28;28.40;89.20
30371;DHT22;17164;48.590;11.410;2022-07-23T11:54:29;28.70;87.50
30371;DHT22;17164;48.590;11.410;2022-07-23T11:56:59;28.80;86.40
30371;DHT22;17164;48.590;11.410;2022-07-23T11:59:27;28.90;86.20
30371;DHT22;17164;48.590;11.410;2022-07-23T12:02:04;29.00;86.90
30371;DHT22;17164;48.590;11.410;2022-07-23T12:04:43;29.10;83.90
30371;DHT22;17164;48.590;11.410;2022-07-23T12:10:00;29.30;82.10
30371;DHT22;17164;48.590;11.410;2022-07-23T12:12:27;29.30;80.40
30371;DHT22;17164;48.590;11.410;2022-07-23T12:14:55;29.50;81.50
30371;DHT22;17164;48.590;11.410;2022-07-23T12:17:28;29.50;83.60
30371;DHT22;17164;48.590;11.410;2022-07-23T12:19:54;29.50;79.60
30371;DHT22;17164;48.590;11.410;2022-07-23T12:22:23;29.30;80.00
30371;DHT22;17164;48.590;11.410;2022-07-23T12:25:04;29.10;81.20
30371;DHT22;17164;48.590;11.410;2022-07-23T12:27:30;28.90;82.10
30371;DHT22;17164;48.590;11.410;2022-07-23T12:29:56;29.00;81.00
30371;DHT22;17164;48.590;11.410;2022-07-23T12:32:26;28.90;81.10
30371;DHT22;17164;48.590;11.410;2022-07-23T12:35:05;28.80;83.60
30371;DHT22;17164;48.590;11.410;2022-07-23T12:37:34;28.80;83.30
30371;DHT22;17164;48.590;11.410;2022-07-23T12:43:00;29.10;82.80
30371;DHT22;17164;48.590;11.410;2022-07-23T12:45:27;29.20;80.50
30371;DHT22;17164;48.590;11.410;2022-07-23T12:48:05;29.30;80.90
30371;DHT22;17164;48.590;11.410;2022-07-23T12:50:47;29.30;80.20
30371;DHT22;17164;48.590;11.410;2022-07-23T12:53:23;29.40;78.70
30371;DHT22;17164;48.590;11.410;2022-07-23T12:55:50;29.30;80.40
30371;DHT22;17164;48.590;11.410;2022-07-23T12:58:18;29.50;80.30
30371;DHT22;17164;48.590;11.410;2022-07-23T13:01:03;29.40;81.20
30371;DHT22;17164;48.590;11.410;2022-07-23T13:03:39;29.30;80.90
30371;DHT22;17164;48.590;11.410;2022-07-23T13:06:07;29.10;80.90
30371;DHT22;17164;48.590;11.410;2022-07-23T13:08:34;28.90;81.30
30371;DHT22;17164;48.590;11.410;2022-07-23T13:11:00;28.80;80.80
30371;DHT22;17164;48.590;11.410;2022-07-23T13:13:28;28.70;79.20
30371;DHT22;17164;48.590;11.410;2022-07-23T13:15:54;28.60;81.90
30371;DHT22;17164;48.590;11.410;2022-07-23T13:18:21;28.50;82.90
30371;DHT22;17164;48.590;11.410;2022-07-23T13:20:47;28.30;83.00
30371;DHT22;17164;48.590;11.410;2022-07-23T13:23:14;28.20;83.90
30371;DHT22;17164;48.590;11.410;2022-07-23T13:25:41;28.00;85.00
30371;DHT22;17164;48.590;11.410;2022-07-23T13:28:06;27.80;83.00
30371;DHT22;17164;48.590;11.410;2022-07-23T13:30:32;27.70;85.00
30371;DHT22;17164;48.590;11.410;2022-07-23T13:32:59;27.50;85.90
30371;DHT22;17164;48.590;11.410;2022-07-23T13:35:25;27.40;86.80
30371;DHT22;17164;48.590;11.410;2022-07-23T13:37:50;27.30;86.90
30371;DHT22;17164;48.590;11.410;2022-07-23T13:40:16;27.30;88.20
30371;DHT22;17164;48.590;11.410;2022-07-23T13:42:42;27.20;87.30
30371;DHT22;17164;48.590;11.410;2022-07-23T13:45:08;27.20;87.20
30371;DHT22;17164;48.590;11.410;2022-07-23T13:47:33;27.10;88.30
30371;DHT22;17164;48.590;11.410;2022-07-23T13:49:59;27.00;88.60
30371;DHT22;17164;48.590;11.410;2022-07-23T13:52:25;27.00;88.30
30371;DHT22;17164;48.590;11.410;2022-07-23T13:54:51;26.90;88.70
30371;DHT22;17164;48.590;11.410;2022-07-23T13:57:17;26.90;89.70
30371;DHT22;17164;48.590;11.410;2022-07-23T13:59:43;26.80;88.80
30371;DHT22;17164;48.590;11.410;2022-07-23T14:02:08;26.80;90.00
30371;DHT22;17164;48.590;11.410;2022-07-23T14:04:34;26.70;89.80
30371;DHT22;17164;48.590;11.410;2022-07-23T14:07:00;26.60;90.20
30371;DHT22;17164;48.590;11.410;2022-07-23T14:09:26;26.60;90.30
30371;DHT22;17164;48.590;11.410;2022-07-23T14:11:52;26.40;90.10
30371;DHT22;17164;48.590;11.410;2022-07-23T14:14:18;26.20;91.70
30371;DHT22;17164;48.590;11.410;2022-07-23T14:16:45;26.00;95.10
30371;DHT22;17164;48.590;11.410;2022-07-23T14:19:11;25.70;98.40
30371;DHT22;17164;48.590;11.410;2022-07-23T14:21:37;25.40;99.90
30371;DHT22;17164;48.590;11.410;2022-07-23T14:24:03;25.20;99.90
30371;DHT22;17164;48.590;11.410;2022-07-23T14:26:29;25.00;99.90
30371;DHT22;17164;48.590;11.410;2022-07-23T14:28:55;24.80;99.90
30371;DHT22;17164;48.590;11.410;2022-07-23T14:31:21;24.70;99.90
30371;DHT22;17164;48.590;11.410;2022-07-23T14:33:47;24.70;99.90
30371;DHT22;17164;48.590;11.410;2022-07-23T14:36:13;24.70;99.90
30371;DHT22;17164;48.590;11.410;2022-07-23T14:38:40;24.70;99.90
30371;DHT22;17164;48.590;11.410;2022-07-23T14:41:05;24.80;99.90
30371;DHT22;17164;48.590;11.410;2022-07-23T14:43:33;25.00;99.90
30371;DHT22;17164;48.590;11.410;2022-07-23T14:45:59;25.30;99.90
30371;DHT22;17164;48.590;11.410;2022-07-23T14:48:25;25.50;99.90
30371;DHT22;17164;48.590;11.410;2022-07-23T14:50:51;25.50;99.90
30371;DHT22;17164;48.590;11.410;2022-07-23T14:53:17;25.70;99.90
30371;DHT22;17164;48.590;11.410;2022-07-23T14:55:44;26.00;99.90
30371;DHT22;17164;48.590;11.410;2022-07-23T14:58:09;26.30;99.90
30371;DHT22;17164;48.590;11.410;2022-07-23T15:00:35;26.60;99.90
30371;DHT22;17164;48.590;11.410;2022-07-23T15:03:01;26.90;99.90
30371;DHT22;17164;48.590;11.410;2022-07-23T15:05:26;27.10;99.90
30371;DHT22;17164;48.590;11.410;2022-07-23T15:07:54;27.30;99.90
30371;DHT22;17164;48.590;11.410;2022-07-23T15:10:19;27.50;99.90
30371;DHT22;17164;48.590;11.410;2022-07-23T15:12:45;27.70;99.90
30371;DHT22;17164;48.590;11.410;2022-07-23T15:15:12;27.80;99.90
30371;DHT22;17164;48.590;11.410;2022-07-23T15:17:38;27.80;99.90
30371;DHT22;17164;48.590;11.410;2022-07-23T15:20:05;27.90;99.90
30371;DHT22;17164;48.590;11.410;2022-07-23T15:22:31;28.10;99.90
30371;DHT22;17164;48.590;11.410;2022-07-23T15:24:57;28.20;99.90
30371;DHT22;17164;48.590;11.410;2022-07-23T15:27:22;28.30;99.90
30371;DHT22;17164;48.590;11.410;2022-07-23T15:29:48;28.20;99.90
30371;DHT22;17164;48.590;11.410;2022-07-23T15:32:14;28.10;99.90
30371;DHT22;17164;48.590;11.410;2022-07-23T15:34:40;28.00;99.90
30371;DHT22;17164;48.590;11.410;2022-07-23T15:37:06;27.90;99.90
30371;DHT22;17164;48.590;11.410;2022-07-23T15:39:32;27.90;99.90
30371;DHT22;17164;48.590;11.410;2022-07-23T15:41:59;27.80;99.90
30371;DHT22;17164;48.590;11.410;2022-07-23T15:44:25;27.70;99.90
30371;DHT22;17164;48.590;11.410;2022-07-23T15:46:51;27.60;99.90
30371;DHT22;17164;48.590;11.410;2022-07-23T15:49:17;27.50;99.90
30371;DHT22;17164;48.590;11.410;2022-07-23T15:51:43;27.50;99.90
30371;DHT22;17164;48.590;11.410;2022-07-23T15:54:09;27.60;99.90
30371;DHT22;17164;48.590;11.410;2022-07-23T15:56:35;27.80;98.70
30371;DHT22;17164;48.590;11.410;2022-07-23T15:59:00;27.90;97.30
30371;DHT22;17164;48.590;11.410;2022-07-23T16:01:26;28.10;98.80
30371;DHT22;17164;48.590;11.410;2022-07-23T16:03:55;28.20;97.60
30371;DHT22;17164;48.590;11.410;2022-07-23T16:06:21;28.10;97.30
30371;DHT22;17164;48.590;11.410;2022-07-23T16:08:47;28.00;96.10
30371;DHT22;17164;48.590;11.410;2022-07-23T16:11:13;27.80;98.50
30371;DHT22;17164;48.590;11.410;2022-07-23T16:13:39;27.70;96.80